sensor_id;sensor_type;location;lat;lon;timestamp;pressure;altitude;pressure_sealevel;temperature;humidity
35878;BME280;21982;49.804;24.072;2022-10-16T00:02:22;97743.66;;;8.84;67.21
35878;BME280;21982;49.804;24.072;2022-10-16T00:05:01;97765.47;;;8.94;67.33
35878;BME280;21982;49.804;24.072;2022-10-16T00:07:28;97793.66;;;9.10;67.19
35878;BME280;21982;49.804;24.072;2022-10-16T00:09:56;97792.66;;;9.11;67.49
35878;BME280;21982;49.804;24.072;2022-10-16T00:12:23;97748.78;;;8.78;67.24
35878;BME280;21982;49.804;24.072;2022-10-16T00:14:52;97790.84;;;9.03;66.67
35878;BME280;21982;49.804;24.072;2022-10-16T00:17:23;97800.59;;;9.03;67.47
35878;BME280;21982;49.804;24.072;2022-10-16T00:19:55;97804.41;;;9.00;67.29
35878;BME280;21982;49.804;24.072;2022-10-16T00:22:25;97790.53;;;8.98;67.69
35878;BME280;21982;49.804;24.072;2022-10-16T00:24:54;97794.34;;;8.96;67.07
35878;BME280;21982;49.804;24.072;2022-10-16T00:27:28;97801.59;;;8.94;67.02
35878;BME280;21982;49.804;24.072;2022-10-16T00:29:57;97660.00;;;8.03;67.12
35878;BME280;21982;49.804;24.072;2022-10-16T00:32:23;97659.66;;;7.90;67.84
35878;BME280;21982;49.804;24.072;2022-10-16T00:34:49;97800.59;;;8.87;67.17
35878;BME280;21982;49.804;24.072;2022-10-16T00:37:16;97604.75;;;7.69;67.40
35878;BME280;21982;49.804;24.072;2022-10-16T00:39:44;97798.28;;;8.84;68.11
35878;BME280;21982;49.804;24.072;2022-10-16T00:42:18;97805.88;;;8.87;67.99
35878;BME280;21982;49.804;24.072;2022-10-16T00:44:57;97798.97;;;8.86;67.46
35878;BME280;21982;49.804;24.072;2022-10-16T00:47:46;97729.47;;;8.36;67.01
35878;BME280;21982;49.804;24.072;2022-10-16T00:53:03;97761.97;;;8.45;67.93
35878;BME280;21982;49.804;24.072;2022-10-16T00:55:38;97803.56;;;8.67;67.72
35878;BME280;21982;49.804;24.072;2022-10-16T00:58:15;97804.53;;;8.66;67.76
35878;BME280;21982;49.804;24.072;2022-10-16T01:00:41;97805.56;;;8.65;67.94
35878;BME280;21982;49.804;24.072;2022-10-16T01:03:31;97818.09;;;8.63;67.83
35878;BME280;21982;49.804;24.072;2022-10-16T01:07:18;97813.13;;;8.60;67.56
35878;BME280;21982;49.804;24.072;2022-10-16T01:09:26;97771.69;;;8.36;68.10
35878;BME280;21982;49.804;24.072;2022-10-16T01:14:50;97805.88;;;8.54;67.68
35878;BME280;21982;49.804;24.072;2022-10-16T01:17:27;97811.97;;;8.55;67.80
35878;BME280;21982;49.804;24.072;2022-10-16T01:20:08;97715.84;;;7.99;68.06
35878;BME280;21982;49.804;24.072;2022-10-16T01:22:48;97809.25;;;8.30;68.31
35878;BME280;21982;49.804;24.072;2022-10-16T01:25:36;97819.38;;;8.43;68.18
35878;BME280;21982;49.804;24.072;2022-10-16T01:28:10;97817.38;;;8.45;68.28
35878;BME280;21982;49.804;24.072;2022-10-16T01:30:41;97821.00;;;8.44;68.72
35878;BME280;21982;49.804;24.072;2022-10-16T01:33:15;97819.38;;;8.43;68.97
35878;BME280;21982;49.804;24.072;2022-10-16T01:35:54;97819.19;;;8.45;68.42
35878;BME280;21982;49.804;24.072;2022-10-16T01:38:35;97819.53;;;8.42;68.50
35878;BME280;21982;49.804;24.072;2022-10-16T01:41:14;97711.31;;;7.67;68.91
35878;BME280;21982;49.804;24.072;2022-10-16T01:44:14;97818.03;;;8.39;68.49
35878;BME280;21982;49.804;24.072;2022-10-16T01:46:48;97778.19;;;8.08;68.90
35878;BME280;21982;49.804;24.072;2022-10-16T01:49:16;97825.94;;;8.39;68.63
35878;BME280;21982;49.804;24.072;2022-10-16T01:51:50;97753.75;;;7.90;68.83
35878;BME280;21982;49.804;24.072;2022-10-16T01:54:22;97846.41;;;8.37;68.62
35878;BME280;21982;49.804;24.072;2022-10-16T01:56:51;97830.06;;;8.33;68.98
35878;BME280;21982;49.804;24.072;2022-10-16T01:59:20;97821.28;;;8.25;68.96
35878;BME280;21982;49.804;24.072;2022-10-16T02:01:52;97855.28;;;8.36;68.77
35878;BME280;21982;49.804;24.072;2022-10-16T02:04:33;97832.66;;;8.25;69.53
35878;BME280;21982;49.804;24.072;2022-10-16T02:07:00;97831.31;;;8.21;68.91
35878;BME280;21982;49.804;24.072;2022-10-16T02:09:26;97809.16;;;8.06;69.34
35878;BME280;21982;49.804;24.072;2022-10-16T02:11:53;97843.38;;;8.32;69.00
35878;BME280;21982;49.804;24.072;2022-10-16T02:14:20;97849.00;;;8.29;69.09
35878;BME280;21982;49.804;24.072;2022-10-16T02:16:47;97799.41;;;7.98;68.44
35878;BME280;21982;49.804;24.072;2022-10-16T02:19:13;97848.81;;;8.22;68.74
35878;BME280;21982;49.804;24.072;2022-10-16T02:21:51;97806.03;;;8.02;69.17
35878;BME280;21982;49.804;24.072;2022-10-16T02:24:32;97845.84;;;8.25;68.96
35878;BME280;21982;49.804;24.072;2022-10-16T02:27:38;97858.53;;;8.22;69.31
35878;BME280;21982;49.804;24.072;2022-10-16T02:30:12;97795.06;;;7.81;69.30
35878;BME280;21982;49.804;24.072;2022-10-16T02:32:40;97842.94;;;8.02;69.61
35878;BME280;21982;49.804;24.072;2022-10-16T02:35:07;97860.00;;;8.16;69.08
35878;BME280;21982;49.804;24.072;2022-10-16T02:37:34;97857.66;;;8.13;69.48
35878;BME280;21982;49.804;24.072;2022-10-16T02:40:01;97851.53;;;8.04;69.21
35878;BME280;21982;49.804;24.072;2022-10-16T02:42:35;97864.44;;;8.16;69.38
35878;BME280;21982;49.804;24.072;2022-10-16T02:45:01;97865.91;;;8.10;69.34
35878;BME280;21982;49.804;24.072;2022-10-16T02:47:30;97819.78;;;7.80;70.04
35878;BME280;21982;49.804;24.072;2022-10-16T02:49:55;97834.00;;;7.87;69.77
35878;BME280;21982;49.804;24.072;2022-10-16T02:52:21;97866.31;;;7.97;70.04
35878;BME280;21982;49.804;24.072;2022-10-16T02:54:46;97871.97;;;8.02;69.42
35878;BME280;21982;49.804;24.072;2022-10-16T02:57:12;97851.16;;;7.91;70.23
35878;BME280;21982;49.804;24.072;2022-10-16T02:59:37;97808.50;;;7.36;69.68
35878;BME280;21982;49.804;24.072;2022-10-16T03:02:03;97865.19;;;8.00;70.21
35878;BME280;21982;49.804;24.072;2022-10-16T03:04:28;97834.41;;;7.74;70.19
35878;BME280;21982;49.804;24.072;2022-10-16T03:06:54;97863.69;;;7.97;70.23
35878;BME280;21982;49.804;24.072;2022-10-16T03:09:19;97862.22;;;7.95;69.53
35878;BME280;21982;49.804;24.072;2022-10-16T03:11:44;97863.34;;;7.92;69.70
35878;BME280;21982;49.804;24.072;2022-10-16T03:14:10;97860.06;;;7.90;70.42
35878;BME280;21982;49.804;24.072;2022-10-16T03:16:35;97827.81;;;7.70;70.19
35878;BME280;21982;49.804;24.072;2022-10-16T03:19:01;97847.44;;;7.76;69.75
35878;BME280;21982;49.804;24.072;2022-10-16T03:21:29;97852.91;;;7.83;70.53
35878;BME280;21982;49.804;24.072;2022-10-16T03:23:55;97853.69;;;7.75;70.35
35878;BME280;21982;49.804;24.072;2022-10-16T03:26:20;97865.44;;;7.81;69.78
35878;BME280;21982;49.804;24.072;2022-10-16T03:28:46;97860.78;;;7.74;70.84
35878;BME280;21982;49.804;24.072;2022-10-16T03:31:11;97865.91;;;7.76;70.13
35878;BME280;21982;49.804;24.072;2022-10-16T03:33:36;97835.78;;;7.53;70.25
35878;BME280;21982;49.804;24.072;2022-10-16T03:36:02;97847.38;;;7.60;70.45
35878;BME280;21982;49.804;24.072;2022-10-16T03:38:27;97866.53;;;7.70;70.84
35878;BME280;21982;49.804;24.072;2022-10-16T03:40:53;97869.31;;;7.68;70.30
35878;BME280;21982;49.804;24.072;2022-10-16T03:43:18;97872.09;;;7.67;70.94
35878;BME280;21982;49.804;24.072;2022-10-16T03:45:44;97857.41;;;7.56;70.64
35878;BME280;21982;49.804;24.072;2022-10-16T03:48:09;97828.16;;;7.42;70.31
35878;BME280;21982;49.804;24.072;2022-10-16T03:50:35;97864.16;;;7.59;70.32
35878;BME280;21982;49.804;24.072;2022-10-16T03:53:00;97845.81;;;7.49;70.85
35878;BME280;21982;49.804;24.072;2022-10-16T03:55:26;97882.31;;;7.62;71.02
35878;BME280;21982;49.804;24.072;2022-10-16T03:57:51;97835.00;;;7.34;70.71
35878;BME280;21982;49.804;24.072;2022-10-16T04:00:17;97881.47;;;7.61;70.46
35878;BME280;21982;49.804;24.072;2022-10-16T04:02:42;97862.47;;;7.50;70.80
35878;BME280;21982;49.804;24.072;2022-10-16T04:05:08;97876.97;;;7.54;71.02
35878;BME280;21982;49.804;24.072;2022-10-16T04:07:33;97881.94;;;7.57;71.11
35878;BME280;21982;49.804;24.072;2022-10-16T04:09:59;97880.44;;;7.54;71.44
35878;BME280;21982;49.804;24.072;2022-10-16T04:12:26;97886.22;;;7.58;71.20
35878;BME280;21982;49.804;24.072;2022-10-16T04:14:51;97866.38;;;7.46;71.02
35878;BME280;21982;49.804;24.072;2022-10-16T04:17:17;97872.00;;;7.51;71.02
35878;BME280;21982;49.804;24.072;2022-10-16T04:19:42;97836.56;;;7.19;71.07
35878;BME280;21982;49.804;24.072;2022-10-16T04:22:08;97864.34;;;7.39;71.34
35878;BME280;21982;49.804;24.072;2022-10-16T04:24:33;97898.06;;;7.54;71.66
35878;BME280;21982;49.804;24.072;2022-10-16T04:26:59;97829.94;;;7.15;71.34
35878;BME280;21982;49.804;24.072;2022-10-16T04:29:24;97873.59;;;7.44;71.87
35878;BME280;21982;49.804;24.072;2022-10-16T04:31:49;97894.75;;;7.52;71.34
35878;BME280;21982;49.804;24.072;2022-10-16T04:34:15;97894.06;;;7.50;71.68
35878;BME280;21982;49.804;24.072;2022-10-16T04:36:40;97897.84;;;7.47;71.45
35878;BME280;21982;49.804;24.072;2022-10-16T04:39:06;97884.09;;;7.35;71.90
35878;BME280;21982;49.804;24.072;2022-10-16T04:41:31;97875.19;;;7.36;71.49
35878;BME280;21982;49.804;24.072;2022-10-16T04:43:56;97885.81;;;7.45;71.81
35878;BME280;21982;49.804;24.072;2022-10-16T04:46:22;97885.28;;;7.41;72.21
35878;BME280;21982;49.804;24.072;2022-10-16T04:48:47;97902.97;;;7.49;71.50
35878;BME280;21982;49.804;24.072;2022-10-16T04:51:13;97877.00;;;7.36;72.29
35878;BME280;21982;49.804;24.072;2022-10-16T04:53:38;97893.56;;;7.46;71.94
35878;BME280;21982;49.804;24.072;2022-10-16T04:56:04;97874.53;;;7.34;71.60
35878;BME280;21982;49.804;24.072;2022-10-16T04:58:29;97887.53;;;7.36;72.15
35878;BME280;21982;49.804;24.072;2022-10-16T05:00:54;97897.69;;;7.49;71.86
35878;BME280;21982;49.804;24.072;2022-10-16T05:03:20;97906.28;;;7.51;72.21
35878;BME280;21982;49.804;24.072;2022-10-16T05:05:46;97906.13;;;7.52;72.16
35878;BME280;21982;49.804;24.072;2022-10-16T05:08:13;97907.63;;;7.55;71.98
35878;BME280;21982;49.804;24.072;2022-10-16T05:10:41;97909.13;;;7.57;71.67
35878;BME280;21982;49.804;24.072;2022-10-16T05:13:08;97909.66;;;7.61;72.18
35878;BME280;21982;49.804;24.072;2022-10-16T05:15:34;97878.66;;;7.37;72.42
35878;BME280;21982;49.804;24.072;2022-10-16T05:17:59;97912.22;;;7.53;72.64
35878;BME280;21982;49.804;24.072;2022-10-16T05:20:25;97917.84;;;7.58;71.71
35878;BME280;21982;49.804;24.072;2022-10-16T05:22:50;97936.03;;;7.69;72.14
35878;BME280;21982;49.804;24.072;2022-10-16T05:25:16;97929.09;;;7.68;72.20
35878;BME280;21982;49.804;24.072;2022-10-16T05:27:48;97935.78;;;7.80;72.13
35878;BME280;21982;49.804;24.072;2022-10-16T05:30:14;97940.91;;;7.82;72.12
35878;BME280;21982;49.804;24.072;2022-10-16T05:32:40;97924.06;;;7.74;71.89
35878;BME280;21982;49.804;24.072;2022-10-16T05:35:05;97943.75;;;7.88;72.28
35878;BME280;21982;49.804;24.072;2022-10-16T05:37:31;97943.81;;;7.96;71.65
35878;BME280;21982;49.804;24.072;2022-10-16T05:39:58;97935.69;;;7.90;71.97
35878;BME280;21982;49.804;24.072;2022-10-16T05:42:24;97952.88;;;8.02;72.15
35878;BME280;21982;49.804;24.072;2022-10-16T05:44:49;97960.03;;;8.10;71.36
35878;BME280;21982;49.804;24.072;2022-10-16T05:47:14;97970.31;;;8.21;71.87
35878;BME280;21982;49.804;24.072;2022-10-16T05:49:40;97956.97;;;8.22;71.54
35878;BME280;21982;49.804;24.072;2022-10-16T05:52:06;97959.19;;;8.35;71.78
35878;BME280;21982;49.804;24.072;2022-10-16T05:54:31;97977.13;;;8.57;71.45
35878;BME280;21982;49.804;24.072;2022-10-16T05:57:00;97982.75;;;8.70;71.48
35878;BME280;21982;49.804;24.072;2022-10-16T05:59:27;97958.00;;;8.63;70.59
35878;BME280;21982;49.804;24.072;2022-10-16T06:01:52;97951.91;;;8.63;70.72
35878;BME280;21982;49.804;24.072;2022-10-16T06:04:22;97982.19;;;8.93;70.33
35878;BME280;21982;49.804;24.072;2022-10-16T06:06:53;97984.03;;;9.08;70.08
35878;BME280;21982;49.804;24.072;2022-10-16T06:09:19;97961.06;;;9.01;70.04
35878;BME280;21982;49.804;24.072;2022-10-16T06:11:47;97945.22;;;9.01;70.60
35878;BME280;21982;49.804;24.072;2022-10-16T06:14:16;97976.34;;;9.31;69.67
35878;BME280;21982;49.804;24.072;2022-10-16T06:16:41;97998.13;;;9.50;69.43
35878;BME280;21982;49.804;24.072;2022-10-16T06:19:06;97959.94;;;9.36;69.87
35878;BME280;21982;49.804;24.072;2022-10-16T06:21:33;97985.25;;;9.55;69.37
35878;BME280;21982;49.804;24.072;2022-10-16T06:24:00;97998.16;;;9.66;69.65
35878;BME280;21982;49.804;24.072;2022-10-16T06:26:27;97997.97;;;9.75;69.39
35878;BME280;21982;49.804;24.072;2022-10-16T06:28:55;97982.44;;;9.72;68.61
35878;BME280;21982;49.804;24.072;2022-10-16T06:31:20;97980.28;;;9.76;68.87
35878;BME280;21982;49.804;24.072;2022-10-16T06:33:50;97998.47;;;9.87;68.43
35878;BME280;21982;49.804;24.072;2022-10-16T06:36:17;97969.72;;;9.84;68.30
35878;BME280;21982;49.804;24.072;2022-10-16T06:38:43;97976.97;;;9.98;68.33
35878;BME280;21982;49.804;24.072;2022-10-16T06:41:18;98007.22;;;10.20;68.11
35878;BME280;21982;49.804;24.072;2022-10-16T06:43:44;97973.97;;;10.09;67.79
35878;BME280;21982;49.804;24.072;2022-10-16T06:46:15;98007.66;;;10.40;67.96
35878;BME280;21982;49.804;24.072;2022-10-16T06:48:41;98008.63;;;10.47;67.71
35878;BME280;21982;49.804;24.072;2022-10-16T06:51:21;97997.72;;;10.50;67.27
35878;BME280;21982;49.804;24.072;2022-10-16T06:53:52;98014.38;;;10.67;66.98
35878;BME280;21982;49.804;24.072;2022-10-16T06:56:21;98011.00;;;10.81;67.01
35878;BME280;21982;49.804;24.072;2022-10-16T06:58:50;97995.75;;;10.83;66.71
35878;BME280;21982;49.804;24.072;2022-10-16T07:01:18;98016.63;;;11.17;66.46
35878;BME280;21982;49.804;24.072;2022-10-16T07:03:45;98015.53;;;11.34;65.79
35878;BME280;21982;49.804;24.072;2022-10-16T07:06:12;98015.50;;;11.43;65.54
35878;BME280;21982;49.804;24.072;2022-10-16T07:08:40;98006.81;;;11.49;65.50
35878;BME280;21982;49.804;24.072;2022-10-16T07:11:08;98006.28;;;11.53;64.94
35878;BME280;21982;49.804;24.072;2022-10-16T07:13:35;98010.38;;;11.64;65.06
35878;BME280;21982;49.804;24.072;2022-10-16T07:18:34;97949.66;;;11.23;65.03
35878;BME280;21982;49.804;24.072;2022-10-16T07:21:05;98018.91;;;11.74;64.71
35878;BME280;21982;49.804;24.072;2022-10-16T07:23:31;98024.56;;;11.71;64.95
35878;BME280;21982;49.804;24.072;2022-10-16T07:25:56;97983.25;;;11.54;64.84
35878;BME280;21982;49.804;24.072;2022-10-16T07:28:22;98008.53;;;11.87;64.60
35878;BME280;21982;49.804;24.072;2022-10-16T07:30:48;98025.63;;;12.07;64.21
35878;BME280;21982;49.804;24.072;2022-10-16T07:33:13;98022.69;;;12.17;63.55
35878;BME280;21982;49.804;24.072;2022-10-16T07:35:49;98000.75;;;12.08;63.41
35878;BME280;21982;49.804;24.072;2022-10-16T07:38:15;98014.38;;;12.20;63.70
35878;BME280;21982;49.804;24.072;2022-10-16T07:40:40;97966.28;;;12.00;63.38
35878;BME280;21982;49.804;24.072;2022-10-16T07:43:05;98041.16;;;12.63;63.04
35878;BME280;21982;49.804;24.072;2022-10-16T07:45:31;97994.72;;;12.44;63.07
35878;BME280;21982;49.804;24.072;2022-10-16T07:47:56;98049.88;;;12.86;62.61
35878;BME280;21982;49.804;24.072;2022-10-16T07:50:22;98047.56;;;12.98;62.68
35878;BME280;21982;49.804;24.072;2022-10-16T07:52:47;98006.25;;;12.81;62.55
35878;BME280;21982;49.804;24.072;2022-10-16T07:55:13;98064.16;;;13.29;62.16
35878;BME280;21982;49.804;24.072;2022-10-16T07:57:41;98064.31;;;13.43;62.08
35878;BME280;21982;49.804;24.072;2022-10-16T08:00:07;98050.19;;;13.42;61.56
35878;BME280;21982;49.804;24.072;2022-10-16T08:02:33;98035.69;;;13.45;61.73
35878;BME280;21982;49.804;24.072;2022-10-16T08:05:01;98024.41;;;13.64;61.14
35878;BME280;21982;49.804;24.072;2022-10-16T08:07:27;98032.34;;;13.79;61.05
35878;BME280;21982;49.804;24.072;2022-10-16T08:09:53;98045.19;;;13.96;60.65
35878;BME280;21982;49.804;24.072;2022-10-16T08:12:18;98035.69;;;13.87;60.22
35878;BME280;21982;49.804;24.072;2022-10-16T08:14:44;98066.41;;;14.32;60.13
35878;BME280;21982;49.804;24.072;2022-10-16T08:17:13;98079.88;;;14.46;59.74
35878;BME280;21982;49.804;24.072;2022-10-16T08:19:39;98023.34;;;14.29;59.43
35878;BME280;21982;49.804;24.072;2022-10-16T08:22:04;98007.97;;;14.31;59.20
35878;BME280;21982;49.804;24.072;2022-10-16T08:24:29;98044.09;;;14.61;58.96
35878;BME280;21982;49.804;24.072;2022-10-16T08:26:56;98083.25;;;14.95;59.05
35878;BME280;21982;49.804;24.072;2022-10-16T08:29:21;98065.66;;;15.01;58.69
35878;BME280;21982;49.804;24.072;2022-10-16T08:31:47;98086.72;;;15.24;58.49
35878;BME280;21982;49.804;24.072;2022-10-16T08:34:13;98078.16;;;15.41;57.82
35878;BME280;21982;49.804;24.072;2022-10-16T08:36:39;98078.41;;;15.53;58.02
35878;BME280;21982;49.804;24.072;2022-10-16T08:39:04;98095.53;;;15.72;57.13
35878;BME280;21982;49.804;24.072;2022-10-16T08:41:50;98084.47;;;15.88;57.06
35878;BME280;21982;49.804;24.072;2022-10-16T08:44:34;98054.47;;;15.86;56.92
35878;BME280;21982;49.804;24.072;2022-10-16T08:47:18;98054.91;;;16.03;56.38
35878;BME280;21982;49.804;24.072;2022-10-16T08:49:58;98076.91;;;16.38;56.22
35878;BME280;21982;49.804;24.072;2022-10-16T08:52:29;98081.22;;;16.72;56.09
35878;BME280;21982;49.804;24.072;2022-10-16T08:54:56;98077.81;;;17.23;55.49
35878;BME280;21982;49.804;24.072;2022-10-16T08:57:24;98077.66;;;18.00;54.75
35878;BME280;21982;49.804;24.072;2022-10-16T08:59:51;98080.47;;;18.87;53.47
35878;BME280;21982;49.804;24.072;2022-10-16T09:02:32;98082.88;;;19.68;51.95
35878;BME280;21982;49.804;24.072;2022-10-16T09:05:10;98080.19;;;20.51;50.36
35878;BME280;21982;49.804;24.072;2022-10-16T09:07:54;98078.31;;;21.22;49.02
35878;BME280;21982;49.804;24.072;2022-10-16T09:10:48;98077.41;;;21.85;47.63
35878;BME280;21982;49.804;24.072;2022-10-16T09:13:28;98082.06;;;22.01;47.16
35878;BME280;21982;49.804;24.072;2022-10-16T09:17:09;98074.31;;;21.24;46.27
35878;BME280;21982;49.804;24.072;2022-10-16T09:21:41;98079.13;;;19.69;48.14
35878;BME280;21982;49.804;24.072;2022-10-16T09:24:21;98067.66;;;19.25;48.79
35878;BME280;21982;49.804;24.072;2022-10-16T09:26:47;98079.06;;;19.21;49.01
35878;BME280;21982;49.804;24.072;2022-10-16T09:29:16;98087.19;;;19.14;48.60
35878;BME280;21982;49.804;24.072;2022-10-16T09:31:45;98078.03;;;19.03;49.16
35878;BME280;21982;49.804;24.072;2022-10-16T09:34:39;98075.63;;;19.14;49.07
35878;BME280;21982;49.804;24.072;2022-10-16T09:37:14;98077.56;;;19.06;48.86
35878;BME280;21982;49.804;24.072;2022-10-16T09:39:48;98082.06;;;19.13;48.59
35878;BME280;21982;49.804;24.072;2022-10-16T09:42:27;98080.63;;;19.10;48.22
35878;BME280;21982;49.804;24.072;2022-10-16T09:44:59;98038.97;;;18.89;48.09
35878;BME280;21982;49.804;24.072;2022-10-16T09:47:29;98037.69;;;19.10;47.87
35878;BME280;21982;49.804;24.072;2022-10-16T09:50:20;98073.56;;;19.52;47.94
35878;BME280;21982;49.804;24.072;2022-10-16T09:52:47;98075.28;;;19.77;47.30
35878;BME280;21982;49.804;24.072;2022-10-16T09:55:20;98086.50;;;20.03;47.08
35878;BME280;21982;49.804;24.072;2022-10-16T09:57:53;98071.56;;;20.19;46.14
35878;BME280;21982;49.804;24.072;2022-10-16T10:00:20;98079.53;;;20.26;46.18
35878;BME280;21982;49.804;24.072;2022-10-16T10:02:46;98014.78;;;20.51;45.88
35878;BME280;21982;49.804;24.072;2022-10-16T10:05:22;98042.81;;;21.65;44.69
35878;BME280;21982;49.804;24.072;2022-10-16T10:07:57;98071.72;;;22.93;43.46
35878;BME280;21982;49.804;24.072;2022-10-16T10:10:29;98059.06;;;23.81;41.52
35878;BME280;21982;49.804;24.072;2022-10-16T10:12:55;98053.56;;;24.30;40.11
35878;BME280;21982;49.804;24.072;2022-10-16T10:15:22;98044.72;;;24.77;39.37
35878;BME280;21982;49.804;24.072;2022-10-16T10:17:55;98053.47;;;25.36;38.30
35878;BME280;21982;49.804;24.072;2022-10-16T10:20:27;98061.78;;;25.82;36.92
35878;BME280;21982;49.804;24.072;2022-10-16T10:22:53;98065.34;;;25.87;37.45
35878;BME280;21982;49.804;24.072;2022-10-16T10:30:53;98058.59;;;26.91;35.73
35878;BME280;21982;49.804;24.072;2022-10-16T10:36:37;98075.28;;;28.09;35.14
35878;BME280;21982;49.804;24.072;2022-10-16T10:39:15;98052.41;;;28.10;33.81
35878;BME280;21982;49.804;24.072;2022-10-16T10:47:04;98066.03;;;28.49;32.55
35878;BME280;21982;49.804;24.072;2022-10-16T11:03:45;98057.47;;;29.18;31.49
35878;BME280;21982;49.804;24.072;2022-10-16T11:06:36;98056.13;;;28.92;31.20
35878;BME280;21982;49.804;24.072;2022-10-16T11:09:16;98032.06;;;28.70;31.23
35878;BME280;21982;49.804;24.072;2022-10-16T11:14:25;98055.16;;;29.07;30.09
35878;BME280;21982;49.804;24.072;2022-10-16T11:17:01;98050.84;;;28.72;30.49
35878;BME280;21982;49.804;24.072;2022-10-16T11:19:42;98055.25;;;28.67;30.83
35878;BME280;21982;49.804;24.072;2022-10-16T11:22:25;98053.41;;;28.92;30.51
35878;BME280;21982;49.804;24.072;2022-10-16T11:27:43;98050.13;;;28.90;30.13
35878;BME280;21982;49.804;24.072;2022-10-16T11:30:25;98022.59;;;28.91;30.41
35878;BME280;21982;49.804;24.072;2022-10-16T11:38:29;98045.44;;;29.19;29.48
35878;BME280;21982;49.804;24.072;2022-10-16T11:41:00;98041.50;;;28.78;29.36
35878;BME280;21982;49.804;24.072;2022-10-16T11:43:34;98051.91;;;28.76;29.76
35878;BME280;21982;49.804;24.072;2022-10-16T11:46:12;98032.91;;;28.65;29.64
35878;BME280;21982;49.804;24.072;2022-10-16T11:48:45;98061.06;;;29.14;29.14
35878;BME280;21982;49.804;24.072;2022-10-16T11:51:23;98043.06;;;29.13;29.10
35878;BME280;21982;49.804;24.072;2022-10-16T11:54:14;98058.88;;;28.87;29.39
35878;BME280;21982;49.804;24.072;2022-10-16T11:56:43;98046.34;;;28.57;29.11
35878;BME280;21982;49.804;24.072;2022-10-16T11:59:36;98033.59;;;28.47;29.37
35878;BME280;21982;49.804;24.072;2022-10-16T12:02:28;98054.22;;;28.58;29.84
35878;BME280;21982;49.804;24.072;2022-10-16T12:05:51;98037.38;;;28.51;29.33
35878;BME280;21982;49.804;24.072;2022-10-16T12:07:59;98054.28;;;28.53;29.02
35878;BME280;21982;49.804;24.072;2022-10-16T12:10:28;98067.59;;;28.16;29.40
35878;BME280;21982;49.804;24.072;2022-10-16T12:13:00;98060.16;;;27.87;29.54
35878;BME280;21982;49.804;24.072;2022-10-16T12:15:31;98051.97;;;27.92;30.14
35878;BME280;21982;49.804;24.072;2022-10-16T12:17:58;98030.16;;;28.02;29.22
35878;BME280;21982;49.804;24.072;2022-10-16T12:20:30;98035.75;;;28.50;29.03
35878;BME280;21982;49.804;24.072;2022-10-16T12:30:24;98036.44;;;28.37;29.14
35878;BME280;21982;49.804;24.072;2022-10-16T12:33:22;98029.75;;;28.53;29.05
35878;BME280;21982;49.804;24.072;2022-10-16T12:35:46;98039.16;;;28.37;28.50
35878;BME280;21982;49.804;24.072;2022-10-16T12:38:25;98060.25;;;28.21;29.06
35878;BME280;21982;49.804;24.072;2022-10-16T12:41:00;98060.94;;;27.98;28.88
35878;BME280;21982;49.804;24.072;2022-10-16T12:46:20;98053.16;;;27.76;29.58
35878;BME280;21982;49.804;24.072;2022-10-16T12:48:51;98049.91;;;27.74;29.51
35878;BME280;21982;49.804;24.072;2022-10-16T12:51:34;98047.41;;;27.83;29.87
35878;BME280;21982;49.804;24.072;2022-10-16T13:02:46;98053.94;;;27.82;29.96
35878;BME280;21982;49.804;24.072;2022-10-16T13:16:29;98039.31;;;26.98;31.22
35878;BME280;21982;49.804;24.072;2022-10-16T13:19:02;98046.06;;;27.11;31.46
35878;BME280;21982;49.804;24.072;2022-10-16T13:24:39;98047.19;;;26.94;31.47
35878;BME280;21982;49.804;24.072;2022-10-16T13:27:18;98046.94;;;27.01;31.17
35878;BME280;21982;49.804;24.072;2022-10-16T13:30:53;97998.84;;;26.71;31.74
35878;BME280;21982;49.804;24.072;2022-10-16T13:33:02;98032.25;;;26.71;32.01
35878;BME280;21982;49.804;24.072;2022-10-16T13:35:33;98020.88;;;26.34;32.15
35878;BME280;21982;49.804;24.072;2022-10-16T13:38:04;98043.94;;;26.11;31.76
35878;BME280;21982;49.804;24.072;2022-10-16T13:40:33;98026.88;;;25.33;32.79
35878;BME280;21982;49.804;24.072;2022-10-16T13:43:01;98000.75;;;24.64;33.72
35878;BME280;21982;49.804;24.072;2022-10-16T13:45:35;98047.56;;;24.55;34.19
35878;BME280;21982;49.804;24.072;2022-10-16T13:48:10;98053.03;;;24.28;34.01
35878;BME280;21982;49.804;24.072;2022-10-16T13:50:39;98059.75;;;23.98;34.50
35878;BME280;21982;49.804;24.072;2022-10-16T13:53:13;98051.03;;;23.43;35.28
35878;BME280;21982;49.804;24.072;2022-10-16T13:55:42;98067.69;;;22.96;36.11
35878;BME280;21982;49.804;24.072;2022-10-16T13:58:12;98065.66;;;22.69;36.50
35878;BME280;21982;49.804;24.072;2022-10-16T14:00:38;98032.72;;;22.17;37.30
35878;BME280;21982;49.804;24.072;2022-10-16T14:03:14;98076.19;;;22.21;37.06
35878;BME280;21982;49.804;24.072;2022-10-16T14:05:52;98058.16;;;21.93;37.48
35878;BME280;21982;49.804;24.072;2022-10-16T14:08:22;98018.84;;;21.52;37.41
35878;BME280;21982;49.804;24.072;2022-10-16T14:10:59;98071.44;;;21.54;37.71
35878;BME280;21982;49.804;24.072;2022-10-16T14:13:44;98074.91;;;21.26;38.11
35878;BME280;21982;49.804;24.072;2022-10-16T14:16:33;98076.09;;;21.07;38.09
35878;BME280;21982;49.804;24.072;2022-10-16T14:19:02;97901.78;;;19.69;38.82
35878;BME280;21982;49.804;24.072;2022-10-16T14:21:35;97834.38;;;19.17;39.12
35878;BME280;21982;49.804;24.072;2022-10-16T14:24:32;98070.34;;;20.45;39.22
35878;BME280;21982;49.804;24.072;2022-10-16T14:27:37;98042.03;;;19.89;39.71
35878;BME280;21982;49.804;24.072;2022-10-16T14:30:16;97822.94;;;18.32;40.25
35878;BME280;21982;49.804;24.072;2022-10-16T14:32:55;97941.75;;;18.87;40.78
35878;BME280;21982;49.804;24.072;2022-10-16T14:35:31;97961.06;;;18.96;41.24
35878;BME280;21982;49.804;24.072;2022-10-16T14:38:01;98081.44;;;19.47;41.77
35878;BME280;21982;49.804;24.072;2022-10-16T14:40:35;98004.00;;;18.96;42.16